Time;durP1;ratioP1;P1;durP2;ratioP2;P2;SDS_P1;SDS_P2;PMS_P1;PMS_P2;Temp;Humidity;BMP_temperature;BMP_pressure;BME280_temperature;BME280_humidity;BME280_pressure;Samples;Min_cycle;Max_cycle;Signal;HPM_P1;HPM_P2
2022/10/11 00:00:07;;;;;;;;;;;15.60;99.90;15.60;99940.00;;;;347350;28;90632;-88
2022/10/11 00:00:19;;;;;;;;;;;15.50;99.90;15.60;99946.00;;;;346762;28;83423;-87
2022/10/11 00:00:34;;;;;;;;;;;15.60;99.90;15.60;99936.00;;;;347467;28;90461;-88
2022/10/11 00:00:46;;;;;;;;;;;15.50;99.90;15.60;99941.00;;;;346657;28;83397;-88
2022/10/11 00:00:58;;;;;;;;;;;15.50;99.90;15.60;99941.00;;;;346194;28;91737;-87
2022/10/11 00:01:10;;;;;;;;;;;15.50;99.90;15.60;99943.00;;;;347522;28;82624;-87
2022/10/11 00:01:22;;;;;;;;;;;15.50;99.90;15.60;99943.00;;;;347343;28;89093;-88
2022/10/11 00:01:34;;;;;;;;;;;15.50;99.90;15.60;99947.00;;;;344955;28;82327;-88
2022/10/11 00:01:45;;;;;;;;;;;15.50;99.90;15.60;99941.00;;;;347501;28;90746;-88
2022/10/11 00:01:57;;;;;;;;;;;15.50;99.90;15.60;99939.00;;;;347749;28;82487;-87
2022/10/11 00:02:09;;;;;;;;;;;15.50;99.90;15.60;99940.00;;;;345893;28;91228;-87
2022/10/11 00:02:21;;;;;;;;;;;15.50;99.90;15.60;99942.00;;;;346197;28;83294;-88
2022/10/11 00:02:36;;;;;;;;;;;15.40;99.90;15.60;99942.00;;;;346047;28;91523;-88
2022/10/11 00:02:48;;;;;;;;;;;15.50;99.90;15.50;99940.00;;;;349028;27;83521;-88
2022/10/11 00:03:00;;;;;;;;;;;15.40;99.90;15.50;99938.00;;;;345975;28;91591;-88
2022/10/11 00:03:13;;;;;;;;;;;15.40;99.90;15.50;99944.00;;;;346485;28;82574;-88
2022/10/11 00:03:25;;;;;;;;;;;15.40;99.90;15.50;99943.00;;;;347247;27;90938;-88
2022/10/11 00:03:37;;;;;;;;;;;15.40;99.90;15.50;99944.00;;;;347429;28;83558;-88
2022/10/11 00:03:48;;;;;;;;;;;15.40;99.90;15.60;99935.00;;;;345957;28;90707;-87
2022/10/11 00:04:00;;;;;;;;;;;15.40;99.90;15.50;99940.00;;;;346318;28;83513;-88
2022/10/11 00:04:12;;;;;;;;;;;15.40;99.90;15.50;99941.00;;;;346092;28;90367;-87
2022/10/11 00:04:24;;;;;;;;;;;15.40;99.90;15.60;99947.00;;;;347873;28;82475;-88
2022/10/11 00:04:36;;;;;;;;;;;15.40;99.90;15.60;99939.00;;;;347472;28;90226;-87
2022/10/11 00:04:49;;;;;;;;;;;15.40;99.90;15.60;99941.00;;;;346490;28;83328;-88
2022/10/11 00:05:01;;;;;;;;;;;15.40;99.90;15.60;99935.00;;;;347294;28;91460;-88
2022/10/11 00:05:13;;;;;;;;;;;15.40;99.90;15.60;99937.00;;;;345933;28;83942;-88
2022/10/11 00:05:24;;;;;;;;;;;15.40;99.90;15.60;99944.00;;;;347174;28;91335;-88
2022/10/11 00:05:36;;;;;;;;;;;15.40;99.90;15.60;99935.00;;;;347735;27;82587;-87
2022/10/11 00:05:48;;;;;;;;;;;15.40;99.90;15.60;99946.00;;;;348606;27;92255;-88
2022/10/11 00:06:02;;;;;;;;;;;15.40;99.90;15.60;99933.00;;;;347594;28;83522;-87
2022/10/11 00:06:14;;;;;;;;;;;15.40;99.90;15.60;99941.00;;;;347148;28;90170;-88
2022/10/11 00:06:26;;;;;;;;;;;15.40;99.90;15.60;99944.00;;;;349091;27;83557;-88
2022/10/11 00:06:38;;;;;;;;;;;15.40;99.90;15.60;99944.00;;;;345895;28;92116;-88
2022/10/11 00:06:50;;;;;;;;;;;15.40;99.90;15.70;99942.00;;;;349357;27;82490;-88
2022/10/11 00:07:01;;;;;;;;;;;15.40;99.90;15.70;99950.00;;;;345823;28;91645;-87
2022/10/11 00:07:13;;;;;;;;;;;15.40;99.90;15.70;99938.00;;;;346659;28;83358;-88
2022/10/11 00:07:25;;;;;;;;;;;15.40;99.90;15.70;99939.00;;;;348780;27;89873;-87
2022/10/11 00:07:37;;;;;;;;;;;15.40;99.90;15.70;99937.00;;;;346501;28;82492;-88
2022/10/11 00:07:49;;;;;;;;;;;15.40;99.90;15.80;99934.00;;;;345991;28;92473;-87
2022/10/11 00:08:00;;;;;;;;;;;15.40;99.90;15.80;99945.00;;;;349150;27;84271;-88
2022/10/11 00:08:13;;;;;;;;;;;15.40;99.90;15.80;99933.00;;;;347388;27;90501;-88
2022/10/11 00:08:25;;;;;;;;;;;15.40;99.90;15.80;99942.00;;;;350622;27;82579;-88
2022/10/11 00:08:37;;;;;;;;;;;15.40;99.90;15.80;99940.00;;;;347402;28;91650;-88
2022/10/11 00:08:49;;;;;;;;;;;15.40;99.90;15.80;99943.00;;;;344991;28;82522;-87
2022/10/11 00:09:00;;;;;;;;;;;15.40;99.90;15.90;99944.00;;;;345871;28;90567;-88
2022/10/11 00:09:13;;;;;;;;;;;15.40;99.90;15.90;99941.00;;;;348043;28;82501;-88
2022/10/11 00:09:25;;;;;;;;;;;15.40;99.90;15.90;99942.00;;;;344579;28;90425;-88
2022/10/11 00:09:37;;;;;;;;;;;15.50;99.90;15.90;99940.00;;;;348027;28;82490;-88
2022/10/11 00:09:49;;;;;;;;;;;15.50;99.90;15.90;99946.00;;;;348749;27;91397;-88
2022/10/11 00:10:00;;;;;;;;;;;15.50;99.90;15.80;99940.00;;;;346527;28;83248;-88
2022/10/11 00:10:12;;;;;;;;;;;15.50;99.90;15.80;99939.00;;;;347165;27;92371;-88
2022/10/11 00:10:24;;;;;;;;;;;15.50;99.90;15.80;99933.00;;;;347882;28;83411;-86
2022/10/11 00:10:35;;;;;;;;;;;15.50;99.90;15.80;99938.00;;;;347350;28;90497;-88
2022/10/11 00:10:57;;;;;;;;;;;15.50;99.90;15.80;99942.00;;;;347612;28;83413;-88
2022/10/11 00:11:09;;;;;;;;;;;15.50;99.90;15.80;99939.00;;;;346913;28;89532;-88
2022/10/11 00:11:21;;;;;;;;;;;15.50;99.90;15.70;99938.00;;;;346532;28;83280;-87
2022/10/11 00:11:33;;;;;;;;;;;15.50;99.90;15.80;99940.00;;;;345990;28;91401;-88
2022/10/11 00:11:45;;;;;;;;;;;15.50;99.90;15.80;99941.00;;;;346423;28;82524;-88
2022/10/11 00:11:56;;;;;;;;;;;15.50;99.90;15.80;99944.00;;;;347539;28;92658;-87
2022/10/11 00:12:08;;;;;;;;;;;15.50;99.90;15.70;99941.00;;;;347688;27;82585;-87
2022/10/11 00:12:20;;;;;;;;;;;15.50;99.90;15.90;99947.00;;;;344569;28;90335;-87
2022/10/11 00:12:32;;;;;;;;;;;15.50;99.90;15.90;99950.00;;;;346385;28;83470;-88
2022/10/11 00:12:44;;;;;;;;;;;15.50;99.90;15.90;99936.00;;;;345872;28;91223;-88
2022/10/11 00:12:56;;;;;;;;;;;15.50;99.90;15.90;99946.00;;;;346144;28;83408;-87
2022/10/11 00:13:08;;;;;;;;;;;15.50;99.90;15.90;99941.00;;;;346972;28;91554;-87
2022/10/11 00:13:19;;;;;;;;;;;15.50;99.90;15.90;99946.00;;;;348935;27;82549;-88
2022/10/11 00:13:32;;;;;;;;;;;15.50;99.90;15.90;99949.00;;;;347098;27;91655;-88
2022/10/11 00:13:43;;;;;;;;;;;15.50;99.90;15.90;99951.00;;;;346203;28;82398;-87
2022/10/11 00:13:55;;;;;;;;;;;15.50;99.90;15.90;99946.00;;;;344429;28;90756;-87
2022/10/11 00:14:07;;;;;;;;;;;15.50;99.90;16.00;99942.00;;;;347458;28;83508;-87
2022/10/11 00:14:19;;;;;;;;;;;15.50;99.90;15.90;99940.00;;;;344261;28;91493;-88
2022/10/11 00:14:32;;;;;;;;;;;15.50;99.90;15.90;99947.00;;;;345917;28;82589;-88
2022/10/11 00:14:44;;;;;;;;;;;15.50;99.90;15.90;99952.00;;;;346950;28;90480;-87
2022/10/11 00:14:56;;;;;;;;;;;15.50;99.90;16.00;99940.00;;;;348756;27;82584;-88
2022/10/11 00:15:08;;;;;;;;;;;15.50;99.90;16.00;99939.00;;;;346948;28;88003;-88
2022/10/11 00:15:20;;;;;;;;;;;15.50;99.90;15.90;99950.00;;;;347477;28;83362;-88
2022/10/11 00:15:32;;;;;;;;;;;15.60;99.90;16.00;99949.00;;;;347060;28;89270;-88
2022/10/11 00:15:44;;;;;;;;;;;15.50;99.90;15.90;99945.00;;;;348945;27;82538;-88
2022/10/11 00:15:55;;;;;;;;;;;15.50;99.90;16.00;99949.00;;;;348502;27;92252;-88
2022/10/11 00:16:10;;;;;;;;;;;15.60;99.90;16.00;99944.00;;;;347519;28;82583;-88
2022/10/11 00:16:22;;;;;;;;;;;15.50;99.90;15.80;99953.00;;;;344397;28;91358;-88
2022/10/11 00:16:33;;;;;;;;;;;15.60;99.90;15.70;99956.00;;;;347720;28;82593;-87
2022/10/11 00:16:45;;;;;;;;;;;15.50;99.90;15.60;99951.00;;;;347136;27;89242;-88
2022/10/11 00:16:57;;;;;;;;;;;15.50;99.90;15.60;99953.00;;;;347850;28;83388;-87
2022/10/11 00:17:09;;;;;;;;;;;15.50;99.90;15.60;99947.00;;;;347138;28;91649;-87
2022/10/11 00:17:20;;;;;;;;;;;15.50;99.90;15.60;99938.00;;;;347791;28;82478;-88
2022/10/11 00:17:32;;;;;;;;;;;15.50;99.90;15.50;99949.00;;;;347239;28;91414;-88
2022/10/11 00:17:44;;;;;;;;;;;15.50;99.90;15.40;99947.00;;;;349436;27;82516;-87
2022/10/11 00:17:56;;;;;;;;;;;15.50;99.90;15.40;99949.00;;;;348796;27;92414;-88
2022/10/11 00:18:12;;;;;;;;;;;15.50;99.90;15.40;99945.00;;;;345182;28;83515;-88
2022/10/11 00:18:24;;;;;;;;;;;15.50;99.90;15.40;99953.00;;;;347502;28;91604;-87
2022/10/11 00:18:36;;;;;;;;;;;15.50;99.90;15.50;99943.00;;;;346606;28;83344;-88
2022/10/11 00:18:49;;;;;;;;;;;15.50;99.90;15.40;99954.00;;;;346287;28;89473;-87
2022/10/11 00:19:00;;;;;;;;;;;15.40;99.90;15.30;99953.00;;;;346824;28;82552;-87
2022/10/11 00:19:13;;;;;;;;;;;15.40;99.90;15.30;99960.00;;;;345135;28;91391;-87
2022/10/11 00:19:25;;;;;;;;;;;15.40;99.90;15.40;99956.00;;;;346965;28;83655;-87
2022/10/11 00:19:37;;;;;;;;;;;15.40;99.90;15.40;99949.00;;;;349013;27;88089;-87
2022/10/11 00:19:48;;;;;;;;;;;15.40;99.90;15.40;99945.00;;;;348149;28;82478;-87
2022/10/11 00:20:00;;;;;;;;;;;15.40;99.90;15.30;99952.00;;;;344877;28;88956;-85
2022/10/11 00:20:12;;;;;;;;;;;15.40;99.90;15.30;99959.00;;;;345427;28;82540;-87
2022/10/11 00:20:25;;;;;;;;;;;15.40;99.90;15.30;99957.00;;;;347568;28;91518;-88
2022/10/11 00:20:37;;;;;;;;;;;15.40;99.90;15.30;99956.00;;;;346425;28;83524;-87
2022/10/11 00:20:48;;;;;;;;;;;15.30;99.90;15.20;99956.00;;;;347593;27;88493;-87
2022/10/11 00:21:02;;;;;;;;;;;15.30;99.90;15.20;99957.00;;;;346562;28;82564;-88
2022/10/11 00:21:14;;;;;;;;;;;15.30;99.90;15.10;99952.00;;;;347446;28;91291;-87
2022/10/11 00:21:26;;;;;;;;;;;15.30;99.90;15.20;99957.00;;;;347478;28;82524;-88
2022/10/11 00:21:38;;;;;;;;;;;15.30;99.90;15.20;99947.00;;;;347043;28;91825;-88
2022/10/11 00:21:49;;;;;;;;;;;15.30;99.90;15.10;99948.00;;;;347525;28;82485;-89
2022/10/11 00:22:01;;;;;;;;;;;15.30;99.90;15.10;99953.00;;;;344222;28;92528;-87
2022/10/11 00:22:13;;;;;;;;;;;15.30;99.90;15.10;99948.00;;;;345900;28;83450;-88
2022/10/11 00:22:25;;;;;;;;;;;15.30;99.90;15.10;99954.00;;;;346759;28;91911;-88
2022/10/11 00:22:36;;;;;;;;;;;15.20;99.90;15.10;99956.00;;;;347319;28;82552;-87
2022/10/11 00:22:48;;;;;;;;;;;15.20;99.90;15.10;99956.00;;;;344307;28;87818;-87
2022/10/11 00:23:00;;;;;;;;;;;15.20;99.90;15.20;99960.00;;;;346046;28;83428;-88
2022/10/11 00:23:11;;;;;;;;;;;15.20;99.90;15.20;99956.00;;;;345751;28;88774;-87
2022/10/11 00:23:23;;;;;;;;;;;15.20;99.90;15.20;99949.00;;;;347558;28;82553;-87
2022/10/11 00:23:35;;;;;;;;;;;15.20;99.90;15.20;99957.00;;;;345706;28;91960;-87
2022/10/11 00:23:47;;;;;;;;;;;15.20;99.90;15.20;99964.00;;;;347320;28;82617;-88
2022/10/11 00:23:59;;;;;;;;;;;15.20;99.90;15.20;99959.00;;;;346962;28;91425;-88
2022/10/11 00:24:11;;;;;;;;;;;15.20;99.90;15.30;99957.00;;;;346119;28;82638;-88
2022/10/11 00:24:22;;;;;;;;;;;15.20;99.90;15.30;99954.00;;;;347413;28;88825;-88
2022/10/11 00:24:34;;;;;;;;;;;15.20;99.90;15.30;99955.00;;;;344915;28;82545;-87
2022/10/11 00:24:46;;;;;;;;;;;15.20;99.90;15.30;99960.00;;;;348221;27;90928;-88
2022/10/11 00:24:58;;;;;;;;;;;15.20;99.90;15.30;99959.00;;;;348966;27;83444;-88
2022/10/11 00:25:10;;;;;;;;;;;15.20;99.90;15.30;99955.00;;;;347026;28;91689;-88
2022/10/11 00:25:21;;;;;;;;;;;15.20;99.90;15.30;99960.00;;;;344815;28;83474;-87
2022/10/11 00:25:33;;;;;;;;;;;15.20;99.90;15.30;99957.00;;;;345784;28;89102;-87
2022/10/11 00:25:55;;;;;;;;;;;15.20;99.90;15.30;99957.00;;;;347669;28;83456;-88
2022/10/11 00:26:08;;;;;;;;;;;15.20;99.90;15.30;99962.00;;;;345660;28;90080;-89
2022/10/11 00:26:20;;;;;;;;;;;15.10;99.90;15.30;99953.00;;;;346207;28;83408;-87
2022/10/11 00:26:32;;;;;;;;;;;15.10;99.90;15.30;99952.00;;;;347030;28;91662;-88
2022/10/11 00:26:44;;;;;;;;;;;15.10;99.90;15.30;99953.00;;;;347415;28;83456;-86
2022/10/11 00:26:57;;;;;;;;;;;15.10;99.90;15.30;99964.00;;;;345744;28;87871;-87
2022/10/11 00:27:09;;;;;;;;;;;15.20;99.90;15.30;99963.00;;;;346191;28;82480;-87
2022/10/11 00:27:21;;;;;;;;;;;15.10;99.90;15.30;99955.00;;;;348275;27;91478;-87
2022/10/11 00:27:33;;;;;;;;;;;15.10;99.90;15.30;99954.00;;;;345873;28;82664;-88
2022/10/11 00:27:44;;;;;;;;;;;15.10;99.90;15.30;99959.00;;;;347120;28;91812;-88
2022/10/11 00:27:56;;;;;;;;;;;15.10;99.90;15.30;99958.00;;;;346345;28;83398;-88
2022/10/11 00:28:08;;;;;;;;;;;15.10;99.90;15.30;99952.00;;;;346727;27;92165;-87
2022/10/11 00:28:20;;;;;;;;;;;15.10;99.90;15.30;99960.00;;;;345918;28;82561;-87
2022/10/11 00:28:32;;;;;;;;;;;15.10;99.90;15.30;99964.00;;;;345917;28;89187;-88
2022/10/11 00:28:43;;;;;;;;;;;15.10;99.90;15.30;99952.00;;;;346094;28;83135;-88
2022/10/11 00:28:55;;;;;;;;;;;15.10;99.90;15.40;99957.00;;;;348373;27;91298;-87
2022/10/11 00:29:07;;;;;;;;;;;15.10;99.90;15.40;99955.00;;;;346173;28;83338;-88
2022/10/11 00:29:19;;;;;;;;;;;15.10;99.90;15.40;99955.00;;;;345798;28;88619;-87
2022/10/11 00:29:30;;;;;;;;;;;15.10;99.90;15.30;99962.00;;;;347545;28;82590;-88
2022/10/11 00:29:42;;;;;;;;;;;15.10;99.90;15.30;99953.00;;;;343137;28;91546;-88
2022/10/11 00:29:54;;;;;;;;;;;15.10;99.90;15.30;99952.00;;;;346203;28;83323;-88
2022/10/11 00:30:06;;;;;;;;;;;15.10;99.90;15.30;99961.00;;;;346713;28;91007;-88
2022/10/11 00:30:18;;;;;;;;;;;15.10;99.90;15.30;99956.00;;;;348796;27;83524;-87
2022/10/11 00:30:30;;;;;;;;;;;15.10;99.90;15.40;99961.00;;;;348438;27;90229;-87
2022/10/11 00:30:42;;;;;;;;;;;15.10;99.90;15.40;99952.00;;;;347456;28;82578;-88
2022/10/11 00:30:54;;;;;;;;;;;15.10;99.90;15.40;99957.00;;;;347262;27;88466;-88
2022/10/11 00:31:10;;;;;;;;;;;15.10;99.90;15.40;99953.00;;;;347304;28;82603;-88
2022/10/11 00:31:22;;;;;;;;;;;15.10;99.90;15.40;99955.00;;;;346915;28;91632;-88
2022/10/11 00:31:33;;;;;;;;;;;15.10;99.90;15.40;99958.00;;;;346287;28;82353;-88
2022/10/11 00:31:46;;;;;;;;;;;15.10;99.90;15.50;99959.00;;;;347209;28;90674;-87
2022/10/11 00:31:58;;;;;;;;;;;15.20;99.90;15.50;99961.00;;;;347600;28;83465;-88
2022/10/11 00:32:10;;;;;;;;;;;15.20;99.90;15.60;99958.00;;;;345710;28;88591;-88
2022/10/11 00:32:21;;;;;;;;;;;15.10;99.90;15.50;99943.00;;;;348944;27;83389;-88
2022/10/11 00:32:34;;;;;;;;;;;15.20;99.90;15.50;99957.00;;;;345652;28;89221;-88
2022/10/11 00:32:45;;;;;;;;;;;15.20;99.90;15.50;99955.00;;;;347778;28;83376;-88
2022/10/11 00:32:57;;;;;;;;;;;15.20;99.90;15.40;99958.00;;;;347153;28;89572;-88
2022/10/11 00:33:09;;;;;;;;;;;15.10;99.90;15.50;99954.00;;;;347690;28;82646;-88
2022/10/11 00:33:21;;;;;;;;;;;15.20;99.90;15.50;99949.00;;;;345560;28;91235;-88
2022/10/11 00:33:32;;;;;;;;;;;15.20;99.90;15.50;99957.00;;;;348935;27;83468;-88
2022/10/11 00:33:44;;;;;;;;;;;15.20;99.90;15.50;99952.00;;;;348386;27;91276;-88
2022/10/11 00:33:56;;;;;;;;;;;15.20;99.90;15.50;99952.00;;;;344775;28;82567;-87
2022/10/11 00:34:09;;;;;;;;;;;15.20;99.90;15.40;99961.00;;;;348320;27;91203;-88
2022/10/11 00:34:20;;;;;;;;;;;15.20;99.90;15.40;99954.00;;;;347639;28;83435;-88
2022/10/11 00:34:32;;;;;;;;;;;15.20;99.90;15.30;99957.00;;;;346906;28;91595;-88
2022/10/11 00:34:44;;;;;;;;;;;15.20;99.90;15.40;99947.00;;;;347604;28;82506;-88
2022/10/11 00:34:58;;;;;;;;;;;15.20;99.90;15.40;99962.00;;;;344263;28;89105;-87
2022/10/11 00:35:10;;;;;;;;;;;15.20;99.90;15.30;99953.00;;;;347600;28;82624;-88
2022/10/11 00:35:21;;;;;;;;;;;15.20;99.90;15.30;99965.00;;;;347138;28;88101;-87
2022/10/11 00:35:33;;;;;;;;;;;15.10;99.90;15.30;99965.00;;;;347662;28;83296;-87
2022/10/11 00:35:45;;;;;;;;;;;15.20;99.90;15.30;99960.00;;;;348643;27;91649;-88
2022/10/11 00:35:58;;;;;;;;;;;15.20;99.90;15.30;99959.00;;;;344906;28;82563;-88
2022/10/11 00:36:13;;;;;;;;;;;15.10;99.90;15.30;99956.00;;;;345668;28;88643;-88
2022/10/11 00:36:25;;;;;;;;;;;15.10;99.90;15.30;99955.00;;;;348984;27;83240;-87
2022/10/11 00:36:36;;;;;;;;;;;15.20;99.90;15.40;99953.00;;;;344480;28;89766;-88
2022/10/11 00:36:48;;;;;;;;;;;15.20;99.90;15.40;99959.00;;;;346201;28;83467;-88
2022/10/11 00:37:00;;;;;;;;;;;15.10;99.90;15.30;99955.00;;;;345623;28;91387;-88
2022/10/11 00:37:12;;;;;;;;;;;15.10;99.90;15.30;99956.00;;;;344798;28;83429;-88
2022/10/11 00:37:23;;;;;;;;;;;15.10;99.90;15.40;99956.00;;;;345825;28;86410;-87
2022/10/11 00:37:36;;;;;;;;;;;15.20;99.90;15.30;99957.00;;;;346265;28;82654;-88
2022/10/11 00:37:48;;;;;;;;;;;15.10;99.90;15.40;99958.00;;;;347207;28;90857;-88
2022/10/11 00:38:00;;;;;;;;;;;15.10;99.90;15.30;99960.00;;;;346123;28;82430;-88
2022/10/11 00:38:11;;;;;;;;;;;15.20;99.90;15.30;99959.00;;;;345442;28;92513;-88
2022/10/11 00:38:23;;;;;;;;;;;15.10;99.90;15.30;99968.00;;;;348589;27;83571;-88
2022/10/11 00:38:35;;;;;;;;;;;15.20;99.90;15.40;99968.00;;;;345858;28;89723;-88
2022/10/11 00:38:47;;;;;;;;;;;15.10;99.90;15.40;99961.00;;;;347554;28;83335;-88
2022/10/11 00:38:58;;;;;;;;;;;15.20;99.90;15.40;99954.00;;;;346949;28;89448;-87
2022/10/11 00:39:10;;;;;;;;;;;15.10;99.90;15.40;99955.00;;;;347589;28;83493;-87
2022/10/11 00:39:25;;;;;;;;;;;15.10;99.90;15.40;99961.00;;;;345853;28;91388;-88
2022/10/11 00:39:36;;;;;;;;;;;15.20;99.90;15.40;99960.00;;;;344825;28;83681;-88
2022/10/11 00:39:48;;;;;;;;;;;15.20;99.90;15.30;99956.00;;;;344703;28;88837;-88
2022/10/11 00:40:00;;;;;;;;;;;15.10;99.90;15.30;99955.00;;;;349130;27;83282;-87
2022/10/11 00:40:14;;;;;;;;;;;15.10;99.90;15.30;99962.00;;;;346930;27;88839;-88
2022/10/11 00:40:25;;;;;;;;;;;15.20;99.90;15.30;99966.00;;;;347565;28;83353;-88
2022/10/11 00:40:37;;;;;;;;;;;15.10;99.90;15.30;99953.00;;;;347143;28;89086;-87
2022/10/11 00:40:49;;;;;;;;;;;15.10;99.90;15.30;99962.00;;;;346204;28;82448;-88
2022/10/11 00:41:00;;;;;;;;;;;15.10;99.90;15.30;99957.00;;;;345818;28;91447;-88
2022/10/11 00:41:12;;;;;;;;;;;15.10;99.90;15.30;99959.00;;;;348982;27;83468;-88
2022/10/11 00:41:24;;;;;;;;;;;15.10;99.90;15.30;99953.00;;;;348591;27;88319;-87
2022/10/11 00:41:36;;;;;;;;;;;15.10;99.90;15.30;99953.00;;;;347646;28;83458;-88
2022/10/11 00:41:48;;;;;;;;;;;15.10;99.90;15.30;99956.00;;;;345526;28;89954;-86
2022/10/11 00:41:59;;;;;;;;;;;15.10;99.90;15.30;99955.00;;;;347385;28;82460;-88
2022/10/11 00:42:14;;;;;;;;;;;15.10;99.90;15.30;99958.00;;;;348504;27;90134;-88
2022/10/11 00:42:26;;;;;;;;;;;15.10;99.90;15.20;99958.00;;;;343719;28;82433;-88
2022/10/11 00:42:38;;;;;;;;;;;15.10;99.90;15.20;99961.00;;;;345970;28;89921;-87
2022/10/11 00:42:50;;;;;;;;;;;15.10;99.90;15.20;99957.00;;;;347690;28;83520;-87
2022/10/11 00:43:01;;;;;;;;;;;15.10;99.90;15.30;99953.00;;;;345775;28;90543;-87
2022/10/11 00:43:18;;;;;;;;;;;15.10;99.90;15.30;99960.00;;;;346390;28;83379;-87
2022/10/11 00:43:30;;;;;;;;;;;15.10;99.90;15.30;99963.00;;;;350109;27;91343;-88
2022/10/11 00:43:42;;;;;;;;;;;15.10;99.90;15.20;99959.00;;;;347512;28;82483;-88
2022/10/11 00:44:20;;;;;;;;;;;15.10;99.90;15.30;99966.00;;;;348743;27;90102;-87
2022/10/11 00:44:32;;;;;;;;;;;15.10;99.90;15.30;99961.00;;;;347888;28;83413;-87
2022/10/11 00:44:47;;;;;;;;;;;15.10;99.90;15.30;99955.00;;;;348620;27;90722;-88
2022/10/11 00:45:38;;;;;;;;;;;15.10;99.90;15.30;99968.00;;;;347659;28;82555;-87
2022/10/11 00:45:56;;;;;;;;;;;15.10;99.90;15.30;99971.00;;;;344355;28;91497;-88
2022/10/11 00:46:17;;;;;;;;;;;15.10;99.90;15.30;99972.00;;;;344289;28;83664;-87
2022/10/11 00:46:29;;;;;;;;;;;15.10;99.90;15.30;99965.00;;;;347139;28;91697;-87
2022/10/11 00:46:43;;;;;;;;;;;15.10;99.90;15.30;99968.00;;;;346193;28;82483;-87
2022/10/11 00:47:02;;;;;;;;;;;15.10;99.90;15.40;99968.00;;;;347287;27;90904;-88
2022/10/11 00:47:15;;;;;;;;;;;15.10;99.90;15.30;99963.00;;;;346283;28;83450;-87
2022/10/11 00:47:27;;;;;;;;;;;15.10;99.90;15.30;99966.00;;;;347058;28;90381;-88
2022/10/11 00:47:39;;;;;;;;;;;15.10;99.90;15.30;99968.00;;;;346358;28;83490;-88
2022/10/11 00:47:55;;;;;;;;;;;15.10;99.90;15.20;99972.00;;;;345826;28;91693;-87
2022/10/11 00:48:13;;;;;;;;;;;15.10;99.90;15.20;99965.00;;;;347556;27;84141;-87
2022/10/11 00:48:56;;;;;;;;;;;15.10;99.90;15.10;99968.00;;;;347088;28;90232;-88
2022/10/11 00:49:20;;;;;;;;;;;15.10;99.90;15.20;99971.00;;;;345202;28;83648;-87
2022/10/11 00:49:37;;;;;;;;;;;15.10;99.90;15.20;99964.00;;;;347208;27;90533;-88
2022/10/11 00:49:53;;;;;;;;;;;15.10;99.90;15.20;99968.00;;;;347698;28;82970;-88
2022/10/11 00:50:07;;;;;;;;;;;15.10;99.90;15.20;99964.00;;;;344305;28;90976;-88
2022/10/11 00:50:18;;;;;;;;;;;15.00;99.90;15.20;99964.00;;;;346163;28;83468;-88
2022/10/11 00:50:32;;;;;;;;;;;15.00;99.90;15.20;99968.00;;;;344456;28;87991;-88
2022/10/11 00:50:43;;;;;;;;;;;15.00;99.90;15.20;99965.00;;;;341991;28;83437;-88
2022/10/11 00:50:56;;;;;;;;;;;15.10;99.90;15.20;99972.00;;;;347055;28;92592;-88
2022/10/11 00:51:22;;;;;;;;;;;15.10;99.90;15.30;99969.00;;;;347605;28;83435;-87
2022/10/11 00:51:45;;;;;;;;;;;15.10;99.90;15.30;99968.00;;;;347222;28;88530;-87
2022/10/11 00:51:59;;;;;;;;;;;15.10;99.90;15.30;99966.00;;;;346061;28;83868;-87
2022/10/11 00:52:18;;;;;;;;;;;15.10;99.90;15.30;99966.00;;;;347074;28;89105;-88
2022/10/11 00:52:33;;;;;;;;;;;15.00;99.90;15.30;99968.00;;;;349075;27;83416;-87
2022/10/11 00:52:45;;;;;;;;;;;15.10;99.90;15.30;99963.00;;;;347184;28;89079;-87
2022/10/11 00:52:58;;;;;;;;;;;15.10;99.90;15.30;99972.00;;;;345938;28;83514;-87
2022/10/11 00:53:10;;;;;;;;;;;15.10;99.90;15.20;99960.00;;;;345769;28;91286;-88
2022/10/11 00:53:22;;;;;;;;;;;15.10;99.90;15.20;99968.00;;;;346288;28;82540;-87
2022/10/11 00:53:34;;;;;;;;;;;15.10;99.90;15.20;99962.00;;;;346939;28;91189;-87
2022/10/11 00:53:46;;;;;;;;;;;15.10;99.90;15.10;99961.00;;;;346364;28;82564;-87
2022/10/11 00:53:58;;;;;;;;;;;15.10;99.90;15.10;99965.00;;;;348475;27;90606;-87
2022/10/11 00:54:11;;;;;;;;;;;15.10;99.90;15.10;99958.00;;;;344814;28;82653;-87
2022/10/11 00:54:24;;;;;;;;;;;15.10;99.90;15.10;99963.00;;;;347076;28;90684;-87
2022/10/11 00:54:37;;;;;;;;;;;15.10;99.90;15.20;99964.00;;;;347673;28;82567;-88
2022/10/11 00:54:49;;;;;;;;;;;15.00;99.90;15.10;99951.00;;;;348565;27;90205;-88
2022/10/11 00:55:06;;;;;;;;;;;15.00;99.90;15.10;99957.00;;;;349055;27;82376;-87
2022/10/11 00:55:18;;;;;;;;;;;15.10;99.90;15.00;99962.00;;;;344487;28;89411;-87
2022/10/11 00:55:32;;;;;;;;;;;15.10;99.90;15.10;99949.00;;;;349005;27;82629;-88
2022/10/11 00:55:48;;;;;;;;;;;15.10;99.90;15.00;99960.00;;;;345773;28;92148;-87
2022/10/11 00:56:03;;;;;;;;;;;15.00;99.90;15.00;99949.00;;;;346367;28;82597;-87
2022/10/11 00:56:23;;;;;;;;;;;15.00;99.90;14.90;99962.00;;;;348574;27;88524;-88
2022/10/11 00:56:37;;;;;;;;;;;15.00;99.90;15.00;99959.00;;;;350618;27;82437;-88
2022/10/11 00:56:52;;;;;;;;;;;15.00;99.90;15.00;99955.00;;;;348569;27;88389;-88
2022/10/11 00:57:06;;;;;;;;;;;15.00;99.90;15.10;99956.00;;;;347861;28;83432;-87
2022/10/11 00:57:19;;;;;;;;;;;15.00;99.90;15.00;99950.00;;;;343128;28;90589;-88
2022/10/11 00:57:33;;;;;;;;;;;15.00;99.90;15.00;99961.00;;;;346335;28;83556;-88
2022/10/11 00:57:45;;;;;;;;;;;15.00;99.90;15.00;99949.00;;;;348735;27;88371;-88
2022/10/11 00:57:57;;;;;;;;;;;15.00;99.90;15.00;99953.00;;;;345213;28;83305;-88
2022/10/11 00:58:09;;;;;;;;;;;15.00;99.90;15.00;99956.00;;;;345819;28;89686;-88
2022/10/11 00:58:21;;;;;;;;;;;15.00;99.90;14.90;99949.00;;;;347927;28;83464;-88
2022/10/11 00:58:33;;;;;;;;;;;15.00;99.90;15.00;99960.00;;;;346003;28;92122;-88
2022/10/11 01:01:25;;;;;;;;;;;15.00;99.90;15.20;99958.00;;;;335560;28;91102;-92
2022/10/11 01:01:36;;;;;;;;;;;15.00;99.90;15.20;99961.00;;;;335273;29;83462;-90
2022/10/11 01:01:48;;;;;;;;;;;15.00;99.90;15.20;99956.00;;;;332326;29;92685;-91
2022/10/11 01:02:00;;;;;;;;;;;15.00;99.90;15.30;99960.00;;;;333937;28;83417;-93
2022/10/11 01:02:12;;;;;;;;;;;15.00;99.90;15.30;99957.00;;;;334947;28;91139;-92
2022/10/11 01:02:24;;;;;;;;;;;15.00;99.90;15.20;99961.00;;;;334058;29;82587;-92
2022/10/11 01:02:36;;;;;;;;;;;15.00;99.90;15.30;99960.00;;;;332328;29;90358;-92
2022/10/11 01:02:48;;;;;;;;;;;15.00;99.90;15.30;99961.00;;;;332891;29;82553;-91
2022/10/11 01:03:00;;;;;;;;;;;15.00;99.90;15.30;99953.00;;;;336417;28;91550;-92
2022/10/11 01:03:12;;;;;;;;;;;15.00;99.90;15.20;99957.00;;;;335283;29;83426;-93
2022/10/11 01:03:23;;;;;;;;;;;15.00;99.90;15.20;99948.00;;;;334940;29;91382;-93
2022/10/11 01:03:35;;;;;;;;;;;15.00;99.90;15.20;99963.00;;;;334172;29;83412;-93
2022/10/11 01:03:47;;;;;;;;;;;15.00;99.90;15.20;99956.00;;;;333670;29;92737;-93
2022/10/11 01:03:59;;;;;;;;;;;15.00;99.90;15.20;99964.00;;;;335440;29;82539;-92
2022/10/11 01:04:11;;;;;;;;;;;15.00;99.90;15.20;99963.00;;;;335019;29;91364;-92
2022/10/11 01:04:23;;;;;;;;;;;15.00;99.90;15.30;99960.00;;;;334074;29;83458;-92
2022/10/11 01:04:35;;;;;;;;;;;15.00;99.90;15.40;99952.00;;;;334858;29;91605;-92
2022/10/11 01:04:47;;;;;;;;;;;15.00;99.90;15.30;99954.00;;;;336538;28;83460;-92
2022/10/11 01:05:17;;;;;;;;;;;15.00;99.90;15.30;99957.00;;;;336178;28;91496;-92
2022/10/11 01:05:43;;;;;;;;;;;15.00;99.90;15.20;99961.00;;;;333993;29;83208;-93
2022/10/11 01:05:54;;;;;;;;;;;15.00;99.90;15.30;99951.00;;;;332303;29;92295;-93
2022/10/11 01:06:06;;;;;;;;;;;15.00;99.90;15.30;99961.00;;;;335380;29;82660;-92
2022/10/11 01:06:19;;;;;;;;;;;15.00;99.90;15.20;99955.00;;;;336193;28;91939;-92
2022/10/11 01:06:31;;;;;;;;;;;15.00;99.90;15.20;99953.00;;;;335518;29;83480;-92
2022/10/11 01:06:44;;;;;;;;;;;15.00;99.90;15.10;99951.00;;;;333830;29;90303;-92
2022/10/11 01:06:56;;;;;;;;;;;15.00;99.90;15.10;99951.00;;;;334303;28;83495;-93